sensor_id;sensor_type;location;lat;lon;timestamp;temperature;humidity
2435;DHT22;1228;51.022;6.764;2023-03-17T00:01:09;8.80;99.90
2435;DHT22;1228;51.022;6.764;2023-03-17T00:03:40;8.80;99.90
2435;DHT22;1228;51.022;6.764;2023-03-17T00:06:20;8.80;99.90
2435;DHT22;1228;51.022;6.764;2023-03-17T00:08:48;8.70;99.90
2435;DHT22;1228;51.022;6.764;2023-03-17T00:11:16;8.70;99.90
2435;DHT22;1228;51.022;6.764;2023-03-17T00:13:43;8.70;99.90
2435;DHT22;1228;51.022;6.764;2023-03-17T00:16:19;8.70;99.90
2435;DHT22;1228;51.022;6.764;2023-03-17T00:18:47;8.70;99.90
2435;DHT22;1228;51.022;6.764;2023-03-17T00:21:15;8.60;99.90
2435;DHT22;1228;51.022;6.764;2023-03-17T00:23:49;8.60;99.90
2435;DHT22;1228;51.022;6.764;2023-03-17T00:26:16;8.60;99.90
2435;DHT22;1228;51.022;6.764;2023-03-17T00:28:42;8.60;99.90
2435;DHT22;1228;51.022;6.764;2023-03-17T00:31:22;8.60;99.90
2435;DHT22;1228;51.022;6.764;2023-03-17T00:33:50;8.50;99.90
2435;DHT22;1228;51.022;6.764;2023-03-17T00:36:28;8.50;99.90
2435;DHT22;1228;51.022;6.764;2023-03-17T00:38:55;8.40;99.90
2435;DHT22;1228;51.022;6.764;2023-03-17T00:41:21;8.40;99.90
2435;DHT22;1228;51.022;6.764;2023-03-17T00:43:47;8.30;99.90
2435;DHT22;1228;51.022;6.764;2023-03-17T00:46:15;8.30;99.90
2435;DHT22;1228;51.022;6.764;2023-03-17T00:48:43;8.30;99.90
2435;DHT22;1228;51.022;6.764;2023-03-17T00:51:09;8.30;99.90
2435;DHT22;1228;51.022;6.764;2023-03-17T00:53:36;8.30;99.90
2435;DHT22;1228;51.022;6.764;2023-03-17T00:56:02;8.30;99.90
2435;DHT22;1228;51.022;6.764;2023-03-17T00:58:30;8.30;99.90
2435;DHT22;1228;51.022;6.764;2023-03-17T01:00:56;8.30;99.90
2435;DHT22;1228;51.022;6.764;2023-03-17T01:03:22;8.30;99.90
2435;DHT22;1228;51.022;6.764;2023-03-17T01:05:49;8.30;99.90
2435;DHT22;1228;51.022;6.764;2023-03-17T01:08:15;8.40;99.90
2435;DHT22;1228;51.022;6.764;2023-03-17T01:10:42;8.30;99.90
2435;DHT22;1228;51.022;6.764;2023-03-17T01:13:10;8.30;99.90
2435;DHT22;1228;51.022;6.764;2023-03-17T01:15:43;8.30;99.90
2435;DHT22;1228;51.022;6.764;2023-03-17T01:18:11;8.30;99.90
2435;DHT22;1228;51.022;6.764;2023-03-17T01:20:37;8.30;99.90
2435;DHT22;1228;51.022;6.764;2023-03-17T01:23:04;8.20;99.90
2435;DHT22;1228;51.022;6.764;2023-03-17T01:25:29;8.20;99.90
2435;DHT22;1228;51.022;6.764;2023-03-17T01:27:56;8.20;99.90
2435;DHT22;1228;51.022;6.764;2023-03-17T01:30:30;8.10;99.90
2435;DHT22;1228;51.022;6.764;2023-03-17T01:32:57;8.10;99.90
2435;DHT22;1228;51.022;6.764;2023-03-17T01:35:24;8.00;99.90
2435;DHT22;1228;51.022;6.764;2023-03-17T01:37:51;8.00;99.90
2435;DHT22;1228;51.022;6.764;2023-03-17T01:40:23;7.90;99.90
2435;DHT22;1228;51.022;6.764;2023-03-17T01:42:58;7.90;99.90
2435;DHT22;1228;51.022;6.764;2023-03-17T01:48:35;7.80;99.90
2435;DHT22;1228;51.022;6.764;2023-03-17T01:51:02;7.80;99.90
2435;DHT22;1228;51.022;6.764;2023-03-17T01:53:31;7.80;99.90
2435;DHT22;1228;51.022;6.764;2023-03-17T01:55:58;7.80;99.90
2435;DHT22;1228;51.022;6.764;2023-03-17T01:58:25;7.80;99.90
2435;DHT22;1228;51.022;6.764;2023-03-17T02:00:50;7.80;99.90
2435;DHT22;1228;51.022;6.764;2023-03-17T02:03:16;7.80;99.90
2435;DHT22;1228;51.022;6.764;2023-03-17T02:05:42;7.80;99.90
2435;DHT22;1228;51.022;6.764;2023-03-17T02:08:12;7.80;99.90
2435;DHT22;1228;51.022;6.764;2023-03-17T02:10:39;7.80;99.90
2435;DHT22;1228;51.022;6.764;2023-03-17T02:13:07;7.70;99.90
2435;DHT22;1228;51.022;6.764;2023-03-17T02:15:40;7.70;99.90
2435;DHT22;1228;51.022;6.764;2023-03-17T02:18:07;7.70;99.90
2435;DHT22;1228;51.022;6.764;2023-03-17T02:22:59;7.70;99.90
2435;DHT22;1228;51.022;6.764;2023-03-17T02:25:27;7.60;99.90
2435;DHT22;1228;51.022;6.764;2023-03-17T02:27:58;7.60;99.90
2435;DHT22;1228;51.022;6.764;2023-03-17T02:30:26;7.60;99.90
2435;DHT22;1228;51.022;6.764;2023-03-17T02:32:53;7.60;99.90
2435;DHT22;1228;51.022;6.764;2023-03-17T02:35:18;7.60;99.90
2435;DHT22;1228;51.022;6.764;2023-03-17T02:37:44;7.50;99.90
2435;DHT22;1228;51.022;6.764;2023-03-17T02:40:12;7.50;99.90
2435;DHT22;1228;51.022;6.764;2023-03-17T02:42:38;7.50;99.90
2435;DHT22;1228;51.022;6.764;2023-03-17T02:45:09;7.50;99.90
2435;DHT22;1228;51.022;6.764;2023-03-17T02:47:39;7.40;99.90
2435;DHT22;1228;51.022;6.764;2023-03-17T02:50:06;7.30;99.90
2435;DHT22;1228;51.022;6.764;2023-03-17T02:52:32;7.30;99.90
2435;DHT22;1228;51.022;6.764;2023-03-17T02:54:57;7.20;99.90
2435;DHT22;1228;51.022;6.764;2023-03-17T02:57:23;7.20;99.90
2435;DHT22;1228;51.022;6.764;2023-03-17T02:59:49;7.10;99.90
2435;DHT22;1228;51.022;6.764;2023-03-17T03:02:15;7.10;99.90
2435;DHT22;1228;51.022;6.764;2023-03-17T03:04:41;7.00;99.90
2435;DHT22;1228;51.022;6.764;2023-03-17T03:07:08;7.00;99.90
2435;DHT22;1228;51.022;6.764;2023-03-17T03:09:34;7.00;99.90
2435;DHT22;1228;51.022;6.764;2023-03-17T03:12:00;6.90;99.90
2435;DHT22;1228;51.022;6.764;2023-03-17T03:14:25;6.90;99.90
2435;DHT22;1228;51.022;6.764;2023-03-17T03:16:51;6.90;99.90
2435;DHT22;1228;51.022;6.764;2023-03-17T03:19:17;6.90;99.90
2435;DHT22;1228;51.022;6.764;2023-03-17T03:21:43;6.90;99.90
2435;DHT22;1228;51.022;6.764;2023-03-17T03:24:09;6.90;99.90
2435;DHT22;1228;51.022;6.764;2023-03-17T03:26:35;6.80;99.90
2435;DHT22;1228;51.022;6.764;2023-03-17T03:29:02;6.80;99.90
2435;DHT22;1228;51.022;6.764;2023-03-17T03:31:28;6.80;99.90
2435;DHT22;1228;51.022;6.764;2023-03-17T03:33:54;6.80;99.90
2435;DHT22;1228;51.022;6.764;2023-03-17T03:36:19;6.80;99.90
2435;DHT22;1228;51.022;6.764;2023-03-17T03:38:46;6.80;99.90
2435;DHT22;1228;51.022;6.764;2023-03-17T03:41:11;6.70;99.90
2435;DHT22;1228;51.022;6.764;2023-03-17T03:43:37;6.70;99.90
2435;DHT22;1228;51.022;6.764;2023-03-17T03:46:03;6.70;99.90
2435;DHT22;1228;51.022;6.764;2023-03-17T03:48:29;6.70;99.90
2435;DHT22;1228;51.022;6.764;2023-03-17T03:50:57;6.70;99.90
2435;DHT22;1228;51.022;6.764;2023-03-17T03:53:23;6.70;99.90
2435;DHT22;1228;51.022;6.764;2023-03-17T03:55:48;6.70;99.90
2435;DHT22;1228;51.022;6.764;2023-03-17T03:58:14;6.70;99.90
2435;DHT22;1228;51.022;6.764;2023-03-17T04:00:39;6.70;99.90
2435;DHT22;1228;51.022;6.764;2023-03-17T04:03:05;6.80;99.90
2435;DHT22;1228;51.022;6.764;2023-03-17T04:05:32;6.80;99.90
2435;DHT22;1228;51.022;6.764;2023-03-17T04:07:57;6.80;99.90
2435;DHT22;1228;51.022;6.764;2023-03-17T04:10:23;6.80;99.90
2435;DHT22;1228;51.022;6.764;2023-03-17T04:12:49;6.80;99.90
2435;DHT22;1228;51.022;6.764;2023-03-17T04:15:17;6.80;99.90
2435;DHT22;1228;51.022;6.764;2023-03-17T04:17:44;6.80;99.90
2435;DHT22;1228;51.022;6.764;2023-03-17T04:20:10;6.80;99.90
2435;DHT22;1228;51.022;6.764;2023-03-17T04:22:37;6.80;99.90
2435;DHT22;1228;51.022;6.764;2023-03-17T04:25:03;6.80;99.90
2435;DHT22;1228;51.022;6.764;2023-03-17T04:27:29;6.90;99.90
2435;DHT22;1228;51.022;6.764;2023-03-17T04:29:54;6.90;99.90
2435;DHT22;1228;51.022;6.764;2023-03-17T04:32:20;6.80;99.90
2435;DHT22;1228;51.022;6.764;2023-03-17T04:34:46;6.80;99.90
2435;DHT22;1228;51.022;6.764;2023-03-17T04:37:12;6.80;99.90
2435;DHT22;1228;51.022;6.764;2023-03-17T04:39:38;6.80;99.90
2435;DHT22;1228;51.022;6.764;2023-03-17T04:42:04;6.80;99.90
2435;DHT22;1228;51.022;6.764;2023-03-17T04:44:30;6.70;99.90
2435;DHT22;1228;51.022;6.764;2023-03-17T04:46:56;6.70;99.90
2435;DHT22;1228;51.022;6.764;2023-03-17T04:49:22;6.60;99.90
2435;DHT22;1228;51.022;6.764;2023-03-17T04:51:47;6.60;99.90
2435;DHT22;1228;51.022;6.764;2023-03-17T04:54:13;6.70;99.90
2435;DHT22;1228;51.022;6.764;2023-03-17T04:56:39;6.60;99.90
2435;DHT22;1228;51.022;6.764;2023-03-17T04:59:04;6.70;99.90
2435;DHT22;1228;51.022;6.764;2023-03-17T05:01:31;6.70;99.90
2435;DHT22;1228;51.022;6.764;2023-03-17T05:03:56;6.70;99.90
2435;DHT22;1228;51.022;6.764;2023-03-17T05:06:22;6.70;99.90
2435;DHT22;1228;51.022;6.764;2023-03-17T05:08:47;6.70;99.90
2435;DHT22;1228;51.022;6.764;2023-03-17T05:11:14;6.70;99.90
2435;DHT22;1228;51.022;6.764;2023-03-17T05:13:40;6.70;99.90
2435;DHT22;1228;51.022;6.764;2023-03-17T05:16:06;6.70;99.90
2435;DHT22;1228;51.022;6.764;2023-03-17T05:18:32;6.70;99.90
2435;DHT22;1228;51.022;6.764;2023-03-17T05:20:58;6.70;99.90
2435;DHT22;1228;51.022;6.764;2023-03-17T05:23:24;6.80;99.90
2435;DHT22;1228;51.022;6.764;2023-03-17T05:25:51;6.80;99.90
2435;DHT22;1228;51.022;6.764;2023-03-17T05:28:17;6.80;99.90
2435;DHT22;1228;51.022;6.764;2023-03-17T05:30:43;6.80;99.90
2435;DHT22;1228;51.022;6.764;2023-03-17T05:33:10;6.80;99.90
2435;DHT22;1228;51.022;6.764;2023-03-17T05:35:36;6.80;99.90
2435;DHT22;1228;51.022;6.764;2023-03-17T05:38:02;6.80;99.90
2435;DHT22;1228;51.022;6.764;2023-03-17T05:40:27;6.90;99.90
2435;DHT22;1228;51.022;6.764;2023-03-17T05:42:53;6.80;99.90
2435;DHT22;1228;51.022;6.764;2023-03-17T05:45:18;6.90;99.90
2435;DHT22;1228;51.022;6.764;2023-03-17T05:47:44;6.90;99.90
2435;DHT22;1228;51.022;6.764;2023-03-17T05:50:11;6.90;99.90
2435;DHT22;1228;51.022;6.764;2023-03-17T05:52:37;6.90;99.90
2435;DHT22;1228;51.022;6.764;2023-03-17T05:55:03;7.00;99.90
2435;DHT22;1228;51.022;6.764;2023-03-17T05:57:29;7.00;99.90
2435;DHT22;1228;51.022;6.764;2023-03-17T05:59:55;7.00;99.90
2435;DHT22;1228;51.022;6.764;2023-03-17T06:02:20;7.00;99.90
2435;DHT22;1228;51.022;6.764;2023-03-17T06:04:46;7.00;99.90
2435;DHT22;1228;51.022;6.764;2023-03-17T06:07:12;7.10;99.90
2435;DHT22;1228;51.022;6.764;2023-03-17T06:09:38;7.10;99.90
2435;DHT22;1228;51.022;6.764;2023-03-17T06:12:03;7.10;99.90
2435;DHT22;1228;51.022;6.764;2023-03-17T06:14:29;7.10;99.90
2435;DHT22;1228;51.022;6.764;2023-03-17T06:16:55;7.20;99.90
2435;DHT22;1228;51.022;6.764;2023-03-17T06:19:21;7.20;99.90
2435;DHT22;1228;51.022;6.764;2023-03-17T06:21:47;7.20;99.90
2435;DHT22;1228;51.022;6.764;2023-03-17T06:24:13;7.30;99.90
2435;DHT22;1228;51.022;6.764;2023-03-17T06:26:38;7.30;99.90
2435;DHT22;1228;51.022;6.764;2023-03-17T06:29:05;7.40;99.90
2435;DHT22;1228;51.022;6.764;2023-03-17T06:31:34;7.40;99.90
2435;DHT22;1228;51.022;6.764;2023-03-17T06:34:00;7.50;99.90
2435;DHT22;1228;51.022;6.764;2023-03-17T06:36:26;7.60;99.90
2435;DHT22;1228;51.022;6.764;2023-03-17T06:38:52;7.60;99.90
2435;DHT22;1228;51.022;6.764;2023-03-17T06:41:17;7.70;99.90
2435;DHT22;1228;51.022;6.764;2023-03-17T06:43:44;7.70;99.90
2435;DHT22;1228;51.022;6.764;2023-03-17T06:46:09;7.80;99.90
2435;DHT22;1228;51.022;6.764;2023-03-17T06:48:35;7.90;99.90
2435;DHT22;1228;51.022;6.764;2023-03-17T06:51:01;8.00;99.90
2435;DHT22;1228;51.022;6.764;2023-03-17T06:53:27;8.00;99.90
2435;DHT22;1228;51.022;6.764;2023-03-17T06:55:52;8.10;99.90
2435;DHT22;1228;51.022;6.764;2023-03-17T06:58:18;8.10;99.90
2435;DHT22;1228;51.022;6.764;2023-03-17T07:00:45;8.20;99.90
2435;DHT22;1228;51.022;6.764;2023-03-17T07:03:11;8.30;99.90
2435;DHT22;1228;51.022;6.764;2023-03-17T07:05:37;8.40;99.90
2435;DHT22;1228;51.022;6.764;2023-03-17T07:08:04;8.60;99.90
2435;DHT22;1228;51.022;6.764;2023-03-17T07:10:30;8.70;99.90
2435;DHT22;1228;51.022;6.764;2023-03-17T07:12:57;8.80;99.90
2435;DHT22;1228;51.022;6.764;2023-03-17T07:15:23;9.00;99.90
2435;DHT22;1228;51.022;6.764;2023-03-17T07:17:49;9.20;99.90
2435;DHT22;1228;51.022;6.764;2023-03-17T07:20:15;9.30;99.90
2435;DHT22;1228;51.022;6.764;2023-03-17T07:22:41;9.50;99.90
2435;DHT22;1228;51.022;6.764;2023-03-17T07:25:07;9.80;99.90
2435;DHT22;1228;51.022;6.764;2023-03-17T07:27:34;10.10;99.90
2435;DHT22;1228;51.022;6.764;2023-03-17T07:30:00;10.30;99.90
2435;DHT22;1228;51.022;6.764;2023-03-17T07:32:29;10.60;99.90
2435;DHT22;1228;51.022;6.764;2023-03-17T07:34:55;10.80;99.90
2435;DHT22;1228;51.022;6.764;2023-03-17T07:37:21;11.00;99.90
2435;DHT22;1228;51.022;6.764;2023-03-17T07:39:47;11.10;99.90
2435;DHT22;1228;51.022;6.764;2023-03-17T07:42:14;11.30;99.90
2435;DHT22;1228;51.022;6.764;2023-03-17T07:44:40;11.50;99.90
2435;DHT22;1228;51.022;6.764;2023-03-17T07:47:07;11.70;99.90
2435;DHT22;1228;51.022;6.764;2023-03-17T07:49:33;11.90;99.90
2435;DHT22;1228;51.022;6.764;2023-03-17T07:51:59;11.90;99.90
2435;DHT22;1228;51.022;6.764;2023-03-17T07:54:25;11.80;99.90
2435;DHT22;1228;51.022;6.764;2023-03-17T07:56:51;11.70;99.90
2435;DHT22;1228;51.022;6.764;2023-03-17T07:59:18;11.50;99.90
2435;DHT22;1228;51.022;6.764;2023-03-17T08:01:43;11.30;99.90
2435;DHT22;1228;51.022;6.764;2023-03-17T08:04:09;11.20;99.90
2435;DHT22;1228;51.022;6.764;2023-03-17T08:06:37;11.10;99.90
2435;DHT22;1228;51.022;6.764;2023-03-17T08:09:03;11.10;99.90
2435;DHT22;1228;51.022;6.764;2023-03-17T08:11:28;11.10;99.90
2435;DHT22;1228;51.022;6.764;2023-03-17T08:13:54;11.20;99.90
2435;DHT22;1228;51.022;6.764;2023-03-17T08:16:20;11.30;99.90
2435;DHT22;1228;51.022;6.764;2023-03-17T08:18:46;11.40;99.90
2435;DHT22;1228;51.022;6.764;2023-03-17T08:21:12;11.50;99.90
2435;DHT22;1228;51.022;6.764;2023-03-17T08:23:37;11.60;99.90
2435;DHT22;1228;51.022;6.764;2023-03-17T08:26:03;11.80;99.90
2435;DHT22;1228;51.022;6.764;2023-03-17T08:28:30;12.00;99.90
2435;DHT22;1228;51.022;6.764;2023-03-17T08:31:06;12.10;99.90
2435;DHT22;1228;51.022;6.764;2023-03-17T08:33:32;12.30;99.90
2435;DHT22;1228;51.022;6.764;2023-03-17T08:35:58;12.50;99.90
2435;DHT22;1228;51.022;6.764;2023-03-17T08:38:24;12.50;99.90
2435;DHT22;1228;51.022;6.764;2023-03-17T08:40:50;12.60;99.90
2435;DHT22;1228;51.022;6.764;2023-03-17T08:43:16;12.70;99.90
2435;DHT22;1228;51.022;6.764;2023-03-17T08:45:43;12.70;99.90
2435;DHT22;1228;51.022;6.764;2023-03-17T08:48:08;12.70;99.90
2435;DHT22;1228;51.022;6.764;2023-03-17T08:50:34;12.60;99.90
2435;DHT22;1228;51.022;6.764;2023-03-17T08:53:00;12.60;99.90
2435;DHT22;1228;51.022;6.764;2023-03-17T08:55:26;12.70;99.90
2435;DHT22;1228;51.022;6.764;2023-03-17T08:57:51;12.70;99.90
2435;DHT22;1228;51.022;6.764;2023-03-17T09:00:18;12.80;99.90
2435;DHT22;1228;51.022;6.764;2023-03-17T09:02:45;13.00;99.90
2435;DHT22;1228;51.022;6.764;2023-03-17T09:05:13;13.20;99.90
2435;DHT22;1228;51.022;6.764;2023-03-17T09:07:39;13.30;99.90
2435;DHT22;1228;51.022;6.764;2023-03-17T09:10:06;13.50;99.90
2435;DHT22;1228;51.022;6.764;2023-03-17T09:12:32;13.70;99.90
2435;DHT22;1228;51.022;6.764;2023-03-17T09:14:58;13.90;99.90
2435;DHT22;1228;51.022;6.764;2023-03-17T09:17:24;14.30;99.90
2435;DHT22;1228;51.022;6.764;2023-03-17T09:19:49;14.40;99.90
2435;DHT22;1228;51.022;6.764;2023-03-17T09:22:16;14.60;99.90
2435;DHT22;1228;51.022;6.764;2023-03-17T09:24:43;14.80;99.90
2435;DHT22;1228;51.022;6.764;2023-03-17T09:27:09;14.90;99.90
2435;DHT22;1228;51.022;6.764;2023-03-17T09:29:35;15.00;99.90
2435;DHT22;1228;51.022;6.764;2023-03-17T09:32:00;15.20;99.90
2435;DHT22;1228;51.022;6.764;2023-03-17T09:34:26;15.30;99.90
2435;DHT22;1228;51.022;6.764;2023-03-17T09:36:53;15.50;99.90
2435;DHT22;1228;51.022;6.764;2023-03-17T09:39:19;15.60;99.90
2435;DHT22;1228;51.022;6.764;2023-03-17T09:41:55;15.70;99.90
2435;DHT22;1228;51.022;6.764;2023-03-17T09:49:51;16.20;99.90
2435;DHT22;1228;51.022;6.764;2023-03-17T09:52:24;16.40;99.90
2435;DHT22;1228;51.022;6.764;2023-03-17T09:54:51;16.50;99.90
2435;DHT22;1228;51.022;6.764;2023-03-17T09:57:25;16.50;99.90
2435;DHT22;1228;51.022;6.764;2023-03-17T09:59:56;16.60;99.90
2435;DHT22;1228;51.022;6.764;2023-03-17T10:02:34;16.70;99.90
2435;DHT22;1228;51.022;6.764;2023-03-17T10:05:49;16.70;99.90
2435;DHT22;1228;51.022;6.764;2023-03-17T10:19:25;16.80;99.80
2435;DHT22;1228;51.022;6.764;2023-03-17T10:21:56;16.70;99.90
2435;DHT22;1228;51.022;6.764;2023-03-17T10:24:24;16.60;99.90
2435;DHT22;1228;51.022;6.764;2023-03-17T10:26:51;16.60;99.90
2435;DHT22;1228;51.022;6.764;2023-03-17T10:29:22;16.50;99.90
2435;DHT22;1228;51.022;6.764;2023-03-17T10:31:49;16.60;99.90
2435;DHT22;1228;51.022;6.764;2023-03-17T10:34:25;16.80;99.90
2435;DHT22;1228;51.022;6.764;2023-03-17T10:37:12;17.30;99.90
2435;DHT22;1228;51.022;6.764;2023-03-17T10:39:52;17.80;99.90
2435;DHT22;1228;51.022;6.764;2023-03-17T10:42:28;18.30;99.90
2435;DHT22;1228;51.022;6.764;2023-03-17T10:45:00;18.70;99.90
2435;DHT22;1228;51.022;6.764;2023-03-17T10:47:36;18.90;98.40
2435;DHT22;1228;51.022;6.764;2023-03-17T10:52:44;19.10;98.10
2435;DHT22;1228;51.022;6.764;2023-03-17T10:55:15;19.10;97.60
2435;DHT22;1228;51.022;6.764;2023-03-17T10:57:57;19.30;98.00
2435;DHT22;1228;51.022;6.764;2023-03-17T11:00:27;19.30;97.40
2435;DHT22;1228;51.022;6.764;2023-03-17T11:02:57;19.40;97.10
2435;DHT22;1228;51.022;6.764;2023-03-17T11:05:28;19.50;97.40
2435;DHT22;1228;51.022;6.764;2023-03-17T11:08:16;19.80;95.70
2435;DHT22;1228;51.022;6.764;2023-03-17T11:10:43;20.10;97.00
2435;DHT22;1228;51.022;6.764;2023-03-17T11:13:09;20.20;97.10
2435;DHT22;1228;51.022;6.764;2023-03-17T11:15:43;20.20;96.10
2435;DHT22;1228;51.022;6.764;2023-03-17T11:18:27;20.00;95.30
2435;DHT22;1228;51.022;6.764;2023-03-17T11:21:09;19.60;95.50
2435;DHT22;1228;51.022;6.764;2023-03-17T11:23:43;19.20;95.60
2435;DHT22;1228;51.022;6.764;2023-03-17T11:31:49;19.10;96.90
2435;DHT22;1228;51.022;6.764;2023-03-17T11:40:03;19.70;95.10
2435;DHT22;1228;51.022;6.764;2023-03-17T11:42:58;19.80;95.50
2435;DHT22;1228;51.022;6.764;2023-03-17T11:53:39;20.50;94.60
2435;DHT22;1228;51.022;6.764;2023-03-17T11:56:17;20.50;94.00
2435;DHT22;1228;51.022;6.764;2023-03-17T11:58:46;20.30;93.70
2435;DHT22;1228;51.022;6.764;2023-03-17T12:01:24;20.20;95.40
2435;DHT22;1228;51.022;6.764;2023-03-17T12:04:08;20.00;94.50
2435;DHT22;1228;51.022;6.764;2023-03-17T12:06:41;19.90;94.40
2435;DHT22;1228;51.022;6.764;2023-03-17T12:09:30;19.90;95.00
2435;DHT22;1228;51.022;6.764;2023-03-17T12:11:58;19.90;95.00
2435;DHT22;1228;51.022;6.764;2023-03-17T12:14:42;19.90;93.90
2435;DHT22;1228;51.022;6.764;2023-03-17T12:17:26;20.00;95.30
2435;DHT22;1228;51.022;6.764;2023-03-17T12:20:09;19.90;94.40
2435;DHT22;1228;51.022;6.764;2023-03-17T12:22:52;19.70;95.00
2435;DHT22;1228;51.022;6.764;2023-03-17T12:25:30;19.50;94.70
2435;DHT22;1228;51.022;6.764;2023-03-17T12:28:09;19.40;95.00
2435;DHT22;1228;51.022;6.764;2023-03-17T12:31:00;19.50;95.60
2435;DHT22;1228;51.022;6.764;2023-03-17T12:33:48;19.50;95.00
2435;DHT22;1228;51.022;6.764;2023-03-17T12:36:19;19.60;94.50
2435;DHT22;1228;51.022;6.764;2023-03-17T12:39:00;19.50;94.80
2435;DHT22;1228;51.022;6.764;2023-03-17T12:49:36;19.70;94.60
2435;DHT22;1228;51.022;6.764;2023-03-17T12:52:24;19.80;94.40
2435;DHT22;1228;51.022;6.764;2023-03-17T12:54:53;19.80;93.70
2435;DHT22;1228;51.022;6.764;2023-03-17T12:57:28;19.70;94.20
2435;DHT22;1228;51.022;6.764;2023-03-17T13:00:06;19.70;93.70
2435;DHT22;1228;51.022;6.764;2023-03-17T13:02:39;19.60;93.60
2435;DHT22;1228;51.022;6.764;2023-03-17T13:05:08;19.70;94.30
2435;DHT22;1228;51.022;6.764;2023-03-17T13:07:55;19.70;93.70
2435;DHT22;1228;51.022;6.764;2023-03-17T13:10:44;19.50;93.00
2435;DHT22;1228;51.022;6.764;2023-03-17T13:13:20;19.40;93.40
2435;DHT22;1228;51.022;6.764;2023-03-17T13:15:50;19.20;94.40
2435;DHT22;1228;51.022;6.764;2023-03-17T13:21:09;19.60;95.50
2435;DHT22;1228;51.022;6.764;2023-03-17T13:34:49;19.90;94.10
2435;DHT22;1228;51.022;6.764;2023-03-17T13:37:20;20.00;94.10
2435;DHT22;1228;51.022;6.764;2023-03-17T13:45:41;20.30;93.40
2435;DHT22;1228;51.022;6.764;2023-03-17T13:53:44;19.60;94.40
2435;DHT22;1228;51.022;6.764;2023-03-17T13:56:21;19.50;95.00
2435;DHT22;1228;51.022;6.764;2023-03-17T13:58:55;19.50;95.40
2435;DHT22;1228;51.022;6.764;2023-03-17T14:01:22;19.50;94.90
2435;DHT22;1228;51.022;6.764;2023-03-17T14:03:49;19.40;95.80
2435;DHT22;1228;51.022;6.764;2023-03-17T14:06:17;19.40;95.60
2435;DHT22;1228;51.022;6.764;2023-03-17T14:08:53;19.30;95.60
2435;DHT22;1228;51.022;6.764;2023-03-17T14:11:25;19.10;95.60
2435;DHT22;1228;51.022;6.764;2023-03-17T14:13:58;19.10;95.90
2435;DHT22;1228;51.022;6.764;2023-03-17T14:16:31;19.00;96.80
2435;DHT22;1228;51.022;6.764;2023-03-17T14:19:11;19.20;97.00
2435;DHT22;1228;51.022;6.764;2023-03-17T14:21:40;19.50;97.30
2435;DHT22;1228;51.022;6.764;2023-03-17T14:24:21;19.60;98.00
2435;DHT22;1228;51.022;6.764;2023-03-17T14:26:48;19.70;96.40
2435;DHT22;1228;51.022;6.764;2023-03-17T14:29:15;19.60;95.80
2435;DHT22;1228;51.022;6.764;2023-03-17T14:31:50;19.40;97.10
2435;DHT22;1228;51.022;6.764;2023-03-17T14:34:20;19.40;97.00
2435;DHT22;1228;51.022;6.764;2023-03-17T14:36:46;19.30;96.80
2435;DHT22;1228;51.022;6.764;2023-03-17T14:39:23;19.30;97.20
2435;DHT22;1228;51.022;6.764;2023-03-17T14:42:03;19.20;97.10
2435;DHT22;1228;51.022;6.764;2023-03-17T14:44:36;19.10;97.20
2435;DHT22;1228;51.022;6.764;2023-03-17T14:47:04;19.00;97.90
2435;DHT22;1228;51.022;6.764;2023-03-17T14:49:32;18.90;98.10
2435;DHT22;1228;51.022;6.764;2023-03-17T14:51:58;18.90;97.80
2435;DHT22;1228;51.022;6.764;2023-03-17T14:54:28;18.70;98.00
2435;DHT22;1228;51.022;6.764;2023-03-17T14:57:00;18.70;98.60
2435;DHT22;1228;51.022;6.764;2023-03-17T14:59:39;18.70;98.60
2435;DHT22;1228;51.022;6.764;2023-03-17T15:04:58;18.40;99.90
2435;DHT22;1228;51.022;6.764;2023-03-17T15:09:58;18.10;99.90
2435;DHT22;1228;51.022;6.764;2023-03-17T15:12:25;18.00;99.90
2435;DHT22;1228;51.022;6.764;2023-03-17T15:14:57;18.00;99.90
2435;DHT22;1228;51.022;6.764;2023-03-17T15:17:31;17.90;99.90
2435;DHT22;1228;51.022;6.764;2023-03-17T15:20:03;17.70;99.90
2435;DHT22;1228;51.022;6.764;2023-03-17T15:25:19;17.50;99.90
2435;DHT22;1228;51.022;6.764;2023-03-17T15:27:47;17.50;99.90
2435;DHT22;1228;51.022;6.764;2023-03-17T15:30:15;17.40;99.90
2435;DHT22;1228;51.022;6.764;2023-03-17T15:32:41;17.30;99.90
2435;DHT22;1228;51.022;6.764;2023-03-17T15:35:10;17.30;99.90
2435;DHT22;1228;51.022;6.764;2023-03-17T15:37:36;17.30;99.90
2435;DHT22;1228;51.022;6.764;2023-03-17T15:40:03;17.30;99.90
2435;DHT22;1228;51.022;6.764;2023-03-17T15:42:32;17.20;99.90
2435;DHT22;1228;51.022;6.764;2023-03-17T15:44:58;17.20;99.90
2435;DHT22;1228;51.022;6.764;2023-03-17T15:47:27;17.20;99.90
2435;DHT22;1228;51.022;6.764;2023-03-17T15:50:16;17.20;99.90
2435;DHT22;1228;51.022;6.764;2023-03-17T15:52:42;17.20;99.90
2435;DHT22;1228;51.022;6.764;2023-03-17T15:55:15;17.10;99.90
2435;DHT22;1228;51.022;6.764;2023-03-17T15:57:41;17.00;99.90
2435;DHT22;1228;51.022;6.764;2023-03-17T16:00:08;16.80;99.90
2435;DHT22;1228;51.022;6.764;2023-03-17T16:02:35;16.70;99.90
2435;DHT22;1228;51.022;6.764;2023-03-17T16:05:12;16.60;99.90
2435;DHT22;1228;51.022;6.764;2023-03-17T16:07:39;16.50;99.90
2435;DHT22;1228;51.022;6.764;2023-03-17T16:10:20;16.40;99.90
2435;DHT22;1228;51.022;6.764;2023-03-17T16:12:47;16.30;99.90
2435;DHT22;1228;51.022;6.764;2023-03-17T16:15:19;16.30;99.90
2435;DHT22;1228;51.022;6.764;2023-03-17T16:17:47;16.20;99.90
2435;DHT22;1228;51.022;6.764;2023-03-17T16:20:32;16.10;99.90
2435;DHT22;1228;51.022;6.764;2023-03-17T16:25:37;16.00;99.90
2435;DHT22;1228;51.022;6.764;2023-03-17T16:28:17;15.90;99.90
2435;DHT22;1228;51.022;6.764;2023-03-17T16:30:43;15.90;99.90
2435;DHT22;1228;51.022;6.764;2023-03-17T16:33:37;15.80;99.90
2435;DHT22;1228;51.022;6.764;2023-03-17T16:36:03;15.70;99.90
2435;DHT22;1228;51.022;6.764;2023-03-17T16:38:30;15.60;99.90
2435;DHT22;1228;51.022;6.764;2023-03-17T16:41:04;15.50;99.90
2435;DHT22;1228;51.022;6.764;2023-03-17T16:43:33;15.40;99.90
2435;DHT22;1228;51.022;6.764;2023-03-17T16:46:03;15.30;99.90
2435;DHT22;1228;51.022;6.764;2023-03-17T16:48:29;15.20;99.90
2435;DHT22;1228;51.022;6.764;2023-03-17T16:50:55;15.20;99.90
2435;DHT22;1228;51.022;6.764;2023-03-17T16:53:21;15.20;99.90
2435;DHT22;1228;51.022;6.764;2023-03-17T16:55:48;15.10;99.90
2435;DHT22;1228;51.022;6.764;2023-03-17T16:58:24;15.10;99.90
2435;DHT22;1228;51.022;6.764;2023-03-17T17:00:53;15.00;99.90
2435;DHT22;1228;51.022;6.764;2023-03-17T17:03:20;15.00;99.90
2435;DHT22;1228;51.022;6.764;2023-03-17T17:05:46;14.80;99.90
2435;DHT22;1228;51.022;6.764;2023-03-17T17:08:11;14.80;99.90
2435;DHT22;1228;51.022;6.764;2023-03-17T17:10:37;14.70;99.90
2435;DHT22;1228;51.022;6.764;2023-03-17T17:13:05;14.70;99.90
2435;DHT22;1228;51.022;6.764;2023-03-17T17:15:31;14.50;99.90
2435;DHT22;1228;51.022;6.764;2023-03-17T17:18:02;14.40;99.90
2435;DHT22;1228;51.022;6.764;2023-03-17T17:20:31;14.20;99.90
2435;DHT22;1228;51.022;6.764;2023-03-17T17:22:58;14.10;99.90
2435;DHT22;1228;51.022;6.764;2023-03-17T17:25:24;13.90;99.90
2435;DHT22;1228;51.022;6.764;2023-03-17T17:27:52;13.70;99.90
2435;DHT22;1228;51.022;6.764;2023-03-17T17:30:20;13.50;99.90
2435;DHT22;1228;51.022;6.764;2023-03-17T17:32:46;13.40;99.90
2435;DHT22;1228;51.022;6.764;2023-03-17T17:35:13;13.40;99.90
2435;DHT22;1228;51.022;6.764;2023-03-17T17:37:40;13.30;99.90
2435;DHT22;1228;51.022;6.764;2023-03-17T17:40:07;13.40;99.90
2435;DHT22;1228;51.022;6.764;2023-03-17T17:42:36;13.40;99.90
2435;DHT22;1228;51.022;6.764;2023-03-17T17:45:02;13.40;99.90
2435;DHT22;1228;51.022;6.764;2023-03-17T17:47:27;13.50;99.90
2435;DHT22;1228;51.022;6.764;2023-03-17T17:49:55;13.50;99.90